Airport View

Enter ICAO identifier to see the current METAR for that AWOS.

KFNL for example

KSFF 221453Z 00000KT 10SM -TSRA BKN060CB BKN085 15/11 A3000

22 Aug 2014 15:43

Phone: 509-624-4406

Other Area AWOS: KGEG - KSKA - KDEW - KCOE

TAF AMD KSFF 221507Z 2215/2312 03008KT P6SM -TSRA SCT080CB BKN120 FM221700 06010KT P6SM SHRA VCTS SCT080CB BKN120 FM222100 06011KT P6SM VCTS SCT060CB BKN150 FM230300 05006KT P6SM VCSH SCT070 BKN120